Volkel Air Base

EHVK · Noord-Brabant, Nederland

METAR historie EHVK · Volkel Air Base

Hieronder zie je METAR's van de afgelopen dagen. Kies een jaar om door oudere METAR's te bladeren, vanaf het jaar 2007.

28 november 2022

Tijd Code Weer Temp. Zicht Plafond Wind METAR/SPECI
05:41
I
8 °C 10 km+ 800 ft 180° 180° 8 kt METAR EHVK 280441Z AUTO 18008KT 150V220 9999 +DZ SCT006 BKN008 OVC009 08/07 Q1009 YLO
05:25
I
8 °C 10 km+ 800 ft 180° 180° 8 kt METAR EHVK 280425Z AUTO 18008KT 150V230 9999 +DZ SCT007 BKN008 OVC010 08/07 Q1009 GRN
05:08
I
8 °C 10 km+ 800 ft 190° 190° 8 kt METAR EHVK 280408Z AUTO 19008KT 150V230 9999 DZ FEW006 BKN008 OVC010 08/07 Q1009 GRN
04:55
M
8 °C 7 km 1.000 ft 190° 190° 8 kt METAR EHVK 280355Z AUTO 19008KT 150V230 7000 DZ FEW007 SCT008 OVC010 08/07 Q1009 GRN
04:25
M
8 °C 10 km+ 1.100 ft 180° 180° 7 kt METAR EHVK 280325Z AUTO 18007KT 130V200 9999 +DZ BKN011 BKN014 OVC017 08/07 Q1009 GRN
03:55
M
8 °C 10 km+ 1.800 ft 190° 190° 8 kt METAR EHVK 280255Z AUTO 19008KT 160V220 9999 DZ OVC018 08/07 Q1009 WHT
03:25
M
8 °C 10 km+ 1.800 ft 170° 170° 6 kt METAR EHVK 280225Z AUTO 17006KT 130V200 9999 DZ OVC018 08/06 Q1009 WHT
02:55
M
8 °C 10 km+ 1.900 ft 180° 180° 7 kt METAR EHVK 280155Z AUTO 18007KT 140V210 9999 OVC019 08/06 Q1009 WHT
02:25
M
9 °C 10 km+ 2.200 ft 180° 180° 8 kt METAR EHVK 280125Z AUTO 18008KT 140V200 9999 FEW018 OVC022 09/06 Q1009 WHT
01:55
M
8 °C 10 km+ 2.000 ft 180° 180° 6 kt METAR EHVK 280055Z AUTO 18006KT 130V210 9999 FEW016 OVC020 08/06 Q1009 WHT
01:25
M
8 °C 10 km+ 2.100 ft 160° 160° 7 kt METAR EHVK 280025Z AUTO 16007KT 120V220 9999 FEW017 OVC021 08/05 Q1009 WHT
00:55
M
8 °C 10 km+ 1.900 ft 160° 160° 7 kt METAR EHVK 272355Z AUTO 16007KT 130V210 9999 BKN019 OVC022 08/05 Q1009 WHT
00:25
M
7 °C 10 km+ 2.100 ft 150° 150° 8 kt METAR EHVK 272325Z AUTO 15008KT 120V190 9999 BKN021 OVC025 07/05 Q1010 WHT

27 november 2022

Tijd Code Weer Temp. Zicht Plafond Wind METAR/SPECI
23:55
M
7 °C 10 km+ 1.600 ft 150° 150° 8 kt METAR EHVK 272255Z AUTO 15008KT 120V190 9999 BKN016 OVC019 07/05 Q1010 WHT
23:25
M
7 °C 10 km+ 1.800 ft 150° 150° 8 kt METAR EHVK 272225Z AUTO 15008KT 120V190 9999 BKN018 OVC021 07/05 Q1010 WHT
22:55
M
7 °C 10 km+ 1.900 ft 160° 160° 7 kt METAR EHVK 272155Z AUTO 16007KT 120V180 9999 DZ OVC019 07/05 Q1011 WHT
22:25
M
7 °C 10 km+ 2.200 ft 140° 140° 7 kt METAR EHVK 272125Z AUTO 14007KT 110V190 9999 FEW015CB OVC022 07/05 Q1011 WHT
22:09
M
7 °C 10 km+ 2.300 ft 150° 150° 7 kt METAR EHVK 272109Z AUTO 15007KT 110V170 9999 -RADZ OVC023 07/05 Q1011 WHT
21:55
M
7 °C 10 km+ 2.100 ft 140° 140° 7 kt METAR EHVK 272055Z AUTO 14007KT 090V170 9999 SHRA OVC021 07/05 Q1012 REDZ WHT
21:25
M
7 °C 10 km+ 2.200 ft 150° 150° 6 kt METAR EHVK 272025Z AUTO 15006KT 110V180 9999 -SHRA +DZ OVC022 07/05 Q1012 WHT
21:08
M
7 °C 10 km+ 2.400 ft 150° 150° 8 kt METAR EHVK 272008Z AUTO 15008KT 120V190 9999 DZ BKN024 OVC027 07/05 Q1012 WHT
21:04
M
7 °C 10 km+ 2.700 ft 150° 150° 8 kt METAR EHVK 272004Z AUTO 15008KT 110V180 9999 DZRA FEW015CB SCT024 OVC027 07/05 Q1012 WHT
20:55
M
7 °C 10 km+ 2.800 ft 140° 140° 7 kt METAR EHVK 271955Z AUTO 14007KT 110V180 9999 -RA FEW015CB SCT025 OVC028 07/05 Q1012 BLU
20:25
M
7 °C 10 km+ 2.900 ft 140° 140° 7 kt METAR EHVK 271925Z AUTO 14007KT 100V170 9999 -RA BKN029 OVC032 07/05 Q1013 RERA REDZ BLU
19:55
V
7 °C 10 km+ 3.200 ft 140° 140° 7 kt METAR EHVK 271855Z AUTO 14007KT 100V170 9999 -RADZ FEW029 OVC032 07/05 Q1013 BLU
19:25
M
7 °C 10 km+ 2.800 ft 140° 140° 7 kt METAR EHVK 271825Z AUTO 14007KT 110V170 9999 -RA BKN028 OVC031 07/05 Q1014 RERA REDZ BLU
18:55
V
7 °C 10 km+ 3.200 ft 150° 150° 6 kt METAR EHVK 271755Z AUTO 15006KT 9999 +DZ OVC032 07/05 Q1014 BLU
18:25
M
8 °C 10 km+ 2.800 ft 150° 150° 8 kt METAR EHVK 271725Z AUTO 15008KT 110V180 9999 DZ OVC028 08/05 Q1014 BLU
17:55
V
8 °C 10 km+ 3.100 ft 140° 140° 8 kt METAR EHVK 271655Z AUTO 14008KT 110V180 9999 DZ OVC031 08/05 Q1014 BLU
17:25
V
8 °C 10 km+ 3.000 ft 150° 150° 7 kt METAR EHVK 271625Z AUTO 15007KT 120V180 9999 -DZ OVC030 08/05 Q1015 BLU
16:55
V
8 °C 10 km+ 3.000 ft 140° 140° 8 kt METAR EHVK 271555Z AUTO 14008KT 120V180 9999 DZ OVC030 08/05 Q1015 BLU
16:25
V
8 °C 10 km+ 3.300 ft 150° 150° 7 kt METAR EHVK 271525Z AUTO 15007KT 9999 -RA OVC033 08/05 Q1016 RERA REDZ BLU
15:55
V
7 °C 10 km+ 3.500 ft 150° 150° 5 kt METAR EHVK 271455Z AUTO 15005KT 110V190 9999 -RADZ OVC035 07/05 Q1016 BLU
15:25
V
7 °C 10 km+ 4.100 ft 130° 130° 7 kt METAR EHVK 271425Z AUTO 13007KT 100V200 9999 -DZ FEW031 SCT036 OVC041 07/05 Q1016 REDZ BLU
14:55
V
7 °C 10 km+ 4.400 ft 150° 150° 6 kt METAR EHVK 271355Z AUTO 15006KT 100V190 9999 DZ OVC044 07/05 Q1017 BLU
14:25
V
7 °C 10 km+ 4.300 ft 140° 140° 6 kt METAR EHVK 271325Z AUTO 14006KT 100V180 9999 -DZ SCT039 OVC043 07/05 Q1017 REDZ BLU
13:55
V
7 °C 10 km+ 4.000 ft 150° 150° 6 kt METAR EHVK 271255Z AUTO 15006KT 110V180 9999 +DZ OVC040 07/05 Q1017 BLU
13:25
V
7 °C 10 km+ 4.200 ft 140° 140° 7 kt METAR EHVK 271225Z AUTO 14007KT 110V170 9999 DZ SCT038 OVC042 07/05 Q1018 BLU
12:55
V
7 °C 10 km+ 4.300 ft 150° 150° 7 kt METAR EHVK 271155Z AUTO 15007KT 100V180 9999 DZ FEW039 OVC043 07/05 Q1019 BLU
12:25
V
7 °C 10 km+ 4.500 ft 140° 140° 7 kt METAR EHVK 271125Z AUTO 14007KT 110V180 9999 DZ OVC045 07/05 Q1019 BLU
11:55
V
7 °C 10 km+ 4.900 ft 150° 150° 6 kt METAR EHVK 271055Z AUTO 15006KT 9999 DZ OVC049 07/05 Q1019 BLU
11:25
V
6 °C 10 km+ 5.200 ft 150° 150° 6 kt METAR EHVK 271025Z AUTO 15006KT 120V180 9999 DZ OVC052 06/05 Q1020 BLU
10:55
V
6 °C 10 km+ 5.400 ft 170° 170° 5 kt METAR EHVK 270955Z AUTO 17005KT 140V200 9999 DZ OVC054 06/05 Q1020 BLU
10:25
V
6 °C 10 km+ 5.800 ft 150° 150° 6 kt METAR EHVK 270925Z AUTO 15006KT 110V180 9999 DZ OVC058 06/04 Q1020 BLU
09:55
V
6 °C 10 km+ 5.900 ft 140° 140° 9 kt METAR EHVK 270855Z AUTO 14009KT 110V170 9999 -RA FEW015CB OVC059 06/04 Q1020 RERA REDZ BLU
09:25
V
6 °C 10 km+ 5.900 ft 150° 150° 8 kt METAR EHVK 270825Z AUTO 15008KT 120V180 9999 DZ OVC059 06/04 Q1020 BLU
08:55
V
6 °C 10 km+ 6.400 ft 150° 150° 7 kt METAR EHVK 270755Z AUTO 15007KT 120V190 9999 -RA OVC064 06/03 Q1021 RERA REDZ BLU
08:25
V
6 °C 10 km+ 6.200 ft 150° 150° 6 kt METAR EHVK 270725Z AUTO 15006KT 120V180 9999 DZ OVC062 06/03 Q1021 BLU
07:55
V
6 °C 10 km+ 7.200 ft 150° 150° 6 kt METAR EHVK 270655Z AUTO 15006KT 120V180 9999 FEW056 OVC072 06/03 Q1021 BLU
07:25
V
6 °C 10 km+ 8.000 ft 140° 140° 8 kt METAR EHVK 270625Z AUTO 14008KT 120V180 9999 FEW056 OVC080 06/03 Q1021 BLU
06:55
V
5 °C 10 km+ 8.400 ft 150° 150° 7 kt METAR EHVK 270555Z AUTO 15007KT 120V180 9999 FEW073 BKN084 OVC089 05/03 Q1022 BLU
06:25
V
5 °C 10 km+ 10.000 ft 150° 150° 7 kt METAR EHVK 270525Z AUTO 15007KT 110V180 9999 OVC100 05/03 Q1022 BLU
05:55
V
5 °C 10 km+ 9.800 ft 160° 160° 7 kt METAR EHVK 270455Z AUTO 16007KT 130V190 9999 BKN098 OVC100 05/03 Q1023 BLU
05:25
V
5 °C 10 km+ 10.000 ft 140° 140° 8 kt METAR EHVK 270425Z AUTO 14008KT 120V190 9999 OVC100 05/03 Q1023 BLU
04:55
V
5 °C 10 km+ 11.000 ft 150° 150° 8 kt METAR EHVK 270355Z AUTO 15008KT 110V180 9999 OVC110 05/03 Q1023 BLU
04:25
V
5 °C 10 km+ 11.000 ft 150° 150° 8 kt METAR EHVK 270325Z AUTO 15008KT 110V180 9999 OVC110 05/03 Q1023 BLU
03:55
V
5 °C 10 km+ 13.000 ft 150° 150° 8 kt METAR EHVK 270255Z AUTO 15008KT 110V190 9999 BKN130 OVC260 05/03 Q1023 BLU
03:25
V
5 °C 10 km+ 12.000 ft 140° 140° 9 kt METAR EHVK 270225Z AUTO 14009KT 9999 OVC120 05/03 Q1023 BLU
02:55
V
5 °C 10 km+ 13.000 ft 140° 140° 7 kt METAR EHVK 270155Z AUTO 14007KT 110V170 9999 OVC130 05/03 Q1024 BLU
02:25
V
4 °C 10 km+ 25.000 ft 150° 150° 5 kt METAR EHVK 270125Z AUTO 15005KT 120V190 9999 OVC250 04/03 Q1024 BLU
01:55
V
5 °C 10 km+ 14.000 ft 150° 150° 6 kt METAR EHVK 270055Z AUTO 15006KT 120V180 9999 OVC140 05/03 Q1024 BLU
01:25
V
6 °C 10 km+ 14.000 ft 160° 160° 6 kt METAR EHVK 270025Z AUTO 16006KT 9999 OVC140 06/04 Q1025 BLU
00:55
V
6 °C 10 km+ 14.000 ft 170° 170° 6 kt METAR EHVK 262355Z AUTO 17006KT 140V200 9999 OVC140 06/04 Q1025 BLU
00:25
V
6 °C 10 km+ 14.000 ft 160° 160° 8 kt METAR EHVK 262325Z AUTO 16008KT 130V190 9999 OVC140 06/04 Q1025 BLU

26 november 2022

Tijd Code Weer Temp. Zicht Plafond Wind METAR/SPECI
23:55
V
6 °C 10 km+ 15.000 ft 160° 160° 8 kt METAR EHVK 262255Z AUTO 16008KT 120V180 9999 OVC150 06/04 Q1025 BLU
23:25
V
7 °C 10 km+ 15.000 ft 180° 180° 7 kt METAR EHVK 262225Z AUTO 18007KT 140V200 9999 OVC150 07/05 Q1026 BLU
22:55
V
7 °C 10 km+ 15.000 ft 180° 180° 9 kt METAR EHVK 262155Z AUTO 18009KT 130V200 9999 OVC150 07/05 Q1026 BLU
22:25
V
7 °C 10 km+ 15.000 ft 190° 190° 9 kt METAR EHVK 262125Z AUTO 19009KT 150V220 9999 OVC150 07/05 Q1027 BLU
21:55
V
7 °C 10 km+ 15.000 ft 200° 200° 8 kt METAR EHVK 262055Z AUTO 20008KT 160V230 9999 OVC150 07/05 Q1027 BLU
21:25
V
7 °C 10 km+ 15.000 ft 190° 190° 8 kt METAR EHVK 262025Z AUTO 19008KT 160V230 9999 OVC150 07/06 Q1027 BLU
20:55
V
7 °C 10 km+ 15.000 ft 180° 180° 7 kt METAR EHVK 261955Z AUTO 18007KT 160V230 9999 OVC150 07/06 Q1027 BLU
20:25
V
7 °C 10 km+ 16.000 ft 180° 180° 7 kt METAR EHVK 261925Z AUTO 18007KT 140V200 9999 OVC160 07/06 Q1027 BLU
19:55
V
7 °C 10 km+ 26.000 ft 190° 190° 7 kt METAR EHVK 261855Z AUTO 19007KT 140V220 9999 SCT170 OVC260 07/06 Q1027 BLU
19:25
V
8 °C 10 km+ 15.000 ft 190° 190° 8 kt METAR EHVK 261825Z AUTO 19008KT 160V220 9999 OVC150 08/06 Q1027 BLU
18:55
V
8 °C 10 km+ 15.000 ft 190° 190° 7 kt METAR EHVK 261755Z AUTO 19007KT 160V230 9999 OVC150 08/06 Q1027 BLU
18:25
V
8 °C 10 km+ 15.000 ft 190° 190° 8 kt METAR EHVK 261725Z AUTO 19008KT 150V230 9999 OVC150 08/06 Q1027 BLU
17:55
V
8 °C 10 km+ 16.000 ft 190° 190° 7 kt METAR EHVK 261655Z AUTO 19007KT 160V220 9999 OVC160 08/06 Q1027 BLU
17:25
V
8 °C 10 km+ 18.000 ft 200° 200° 6 kt METAR EHVK 261625Z AUTO 20006KT 150V220 9999 BKN180 OVC280 08/06 Q1028 BLU
16:55
V
8 °C 10 km+ 16.000 ft 180° 180° 5 kt METAR EHVK 261555Z AUTO 18005KT 150V210 9999 OVC160 08/07 Q1027 BLU
16:25
V
9 °C 10 km+ 22.000 ft 170° 170° 5 kt METAR EHVK 261525Z AUTO 17005KT 130V190 9999 SCT160 OVC220 09/07 Q1027 BLU
15:55
V
10 °C 10 km+ 13.000 ft 180° 180° 6 kt METAR EHVK 261455Z AUTO 18006KT 150V220 9999 OVC130 10/07 Q1027 BLU
15:25
V
10 °C 10 km+ 12.000 ft 190° 190° 8 kt METAR EHVK 261425Z AUTO 19008KT 160V220 9999 OVC120 10/07 Q1028 BLU
14:55
V
10 °C 10 km+ 12.000 ft 200° 200° 7 kt METAR EHVK 261355Z AUTO 20007KT 150V220 9999 OVC120 10/07 Q1028 BLU
14:25
V
9 °C 10 km+ 11.000 ft 190° 190° 7 kt METAR EHVK 261325Z AUTO 19007KT 150V230 9999 OVC110 09/07 Q1028 BLU
13:55
V
9 °C 10 km+ 11.000 ft 200° 200° 7 kt METAR EHVK 261255Z AUTO 20007KT 170V240 9999 OVC110 09/07 Q1028 BLU
13:25
V
10 °C 10 km+ 11.000 ft 200° 200° 7 kt METAR EHVK 261225Z AUTO 20007KT 160V230 9999 OVC110 10/07 Q1028 BLU
12:55
V
9 °C 10 km+ 11.000 ft 210° 210° 8 kt METAR EHVK 261155Z AUTO 21008KT 170V240 9999 OVC110 09/07 Q1028 BLU
12:25
V
9 °C 10 km+ 11.000 ft 200° 200° 6 kt METAR EHVK 261125Z AUTO 20006KT 150V230 9999 OVC110 09/07 Q1028 BLU
11:55
V
7 °C 10 km+ 11.000 ft 200° 200° 6 kt METAR EHVK 261055Z AUTO 20006KT 170V230 9999 FEW080 OVC110 07/06 Q1029 BLU
11:25
V
7 °C 10 km+ 7.900 ft 200° 200° 6 kt METAR EHVK 261025Z AUTO 20006KT 160V240 9999 OVC079 07/06 Q1029 BLU
10:55
V
6 °C 10 km+ 8.700 ft 210° 210° 7 kt METAR EHVK 260955Z AUTO 21007KT 170V250 9999 FEW079 BKN087 OVC110 06/06 Q1029 BLU
10:25
V
6 °C 9 km 8.000 ft 210° 210° 6 kt METAR EHVK 260925Z AUTO 21006KT 160V230 9000 BR BKN080 OVC087 06/05 Q1028 BLU
09:55
V
5 °C 9 km 13.000 ft 200° 200° 6 kt METAR EHVK 260855Z AUTO 20006KT 150V230 9000 BR OVC130 05/05 Q1028 BLU
09:41
V
5 °C 8 km 13.000 ft 200° 200° 6 kt METAR EHVK 260841Z AUTO 20006KT 160V230 8000 BR OVC130 05/05 Q1028 BLU
09:37
M
5 °C 7 km 13.000 ft 200° 200° 6 kt METAR EHVK 260837Z AUTO 20006KT 160V230 7000 BR OVC130 05/04 Q1028 WHT
09:29
V
5 °C 8 km 13.000 ft 200° 200° 5 kt METAR EHVK 260829Z AUTO 20005KT 150V230 8000 BR OVC130 05/04 Q1028 BLU
09:25
M
4 °C 7 km 17.000 ft 200° 200° 6 kt METAR EHVK 260825Z AUTO 20006KT 150V230 7000 BR OVC170 04/04 Q1028 WHT
08:55
M
4 °C 5 km 26.000 ft 200° 200° 5 kt METAR EHVK 260755Z AUTO 20005KT 160V240 5000 BR OVC260 04/03 Q1028 WHT
08:39
M
3 °C 5 km 26.000 ft 220° 220° 5 kt METAR EHVK 260739Z AUTO 22005KT 5000 BR OVC260 03/02 Q1028 WHT
08:37
I
3 °C 4,8 km 26.000 ft 210° 210° 5 kt METAR EHVK 260737Z AUTO 21005KT 170V230 4800 BR SCT170 OVC260 03/03 Q1028 GRN
08:25
I
3 °C 4,3 km 27.000 ft 200° 200° 4 kt METAR EHVK 260725Z AUTO 20004KT 150V220 4300 BR SCT170 OVC270 03/03 Q1028 GRN
08:14
I
3 °C 3,9 km 27.000 ft 200° 200° 5 kt METAR EHVK 260714Z AUTO 20005KT 150V220 3900 BR OVC270 03/03 Q1028 GRN
07:55
I
3 °C 3,4 km 28.000 ft 210° 210° 4 kt METAR EHVK 260655Z AUTO 21004KT 140V270 3400 BR OVC280 03/03 Q1028 YLO
07:25
I
3 °C 2,7 km 30.000 ft 220° 220° 5 kt METAR EHVK 260625Z AUTO 22005KT 170V230 2700 BR FEW190 BKN300 03/03 Q1027 YLO
06:55
I
3 °C 2,9 km 17.000 ft 200° 200° 5 kt METAR EHVK 260555Z AUTO 20005KT 160V220 2900 BR BKN170 BKN350 03/02 Q1027 YLO
06:25
I
2 °C 2,7 km 33.000 ft 210° 210° 6 kt METAR EHVK 260525Z AUTO 21006KT 2700 BR OVC330 02/02 Q1027 YLO
05:59
I
2 °C 2,3 km 18.000 ft 210° 210° 6 kt METAR EHVK 260459Z AUTO 21006KT 180V240 2300 BR BKN180 OVC340 02/02 Q1027 YLO
05:55
L
2 °C 1,3 km 18.000 ft 210° 210° 6 kt METAR EHVK 260455Z AUTO 21006KT 180V260 1300 BR BKN180 OVC340 02/02 Q1027 AMB
05:41
L
2 °C 1 km 21.000 ft 220° 220° 6 kt METAR EHVK 260441Z AUTO 22006KT 170V240 1000 BR OVC210 02/02 Q1027 AMB
05:25
L
2 °C 1,1 km 19.000 ft 210° 210° 6 kt METAR EHVK 260425Z AUTO 21006KT 180V240 1100 BR OVC190 02/02 Q1027 AMB
05:21
L
2 °C 1,2 km 19.000 ft 210° 210° 6 kt METAR EHVK 260421Z AUTO 21006KT 180V240 1200 BR OVC190 02/02 Q1027 AMB
05:05
L
2 °C 800 m 21.000 ft 210° 210° 6 kt METAR EHVK 260405Z AUTO 21006KT 180V250 0800 FG OVC210 02/02 Q1027 AMB
04:55
L
2 °C 650 m - 220° 220° 6 kt METAR EHVK 260355Z AUTO 22006KT 170V260 0650 FG SCT210 02/02 Q1027 RED
04:44
L
2 °C 650 m - 220° 220° 6 kt METAR EHVK 260344Z AUTO 22006KT 200V260 0650 FG NCD 02/02 Q1026 RED
04:38
L
2 °C 800 m - 220° 220° 6 kt METAR EHVK 260338Z AUTO 22006KT 180V240 0800 FG NCD 02/02 Q1026 AMB
04:26
L
2 °C 650 m - 220° 220° 6 kt METAR EHVK 260326Z AUTO 22006KT 0650 FG NCD 02/02 Q1026 RED
04:25
L
2 °C 900 m - 220° 220° 6 kt METAR EHVK 260325Z AUTO 22006KT 0900 FG NCD 02/02 Q1026 AMB
03:55
L
2 °C 800 m - 220° 220° 6 kt METAR EHVK 260255Z AUTO 22006KT 0800 FG NCD 02/02 Q1026 AMB
03:34
L
2 °C 1,1 km - 220° 220° 6 kt METAR EHVK 260234Z AUTO 22006KT 1100 BR NCD 02/02 Q1026 AMB
03:25
I
2 °C 2,1 km - 210° 210° 5 kt METAR EHVK 260225Z AUTO 21005KT 2100 BR NCD 02/02 Q1026 YLO
02:59
I
3 °C 3,1 km - 210° 210° 5 kt METAR EHVK 260159Z AUTO 21005KT 3100 BR NCD 03/03 Q1026 YLO
02:55
I
2 °C 4,4 km - 210° 210° 5 kt METAR EHVK 260155Z AUTO 21005KT 4400 BR NCD 02/02 Q1026 GRN
02:38
M
2 °C 5 km - 220° 220° 6 kt METAR EHVK 260138Z AUTO 22006KT 5000 BR NCD 02/02 Q1026 WHT
02:25
I
2 °C 4,6 km - 220° 220° 6 kt METAR EHVK 260125Z AUTO 22006KT 4600 BR NCD 02/02 Q1026 GRN
01:55
M
3 °C 6 km - 230° 230° 7 kt METAR EHVK 260055Z AUTO 23007KT 6000 BR NCD 03/03 Q1025 WHT
01:25
M
3 °C 6 km - 230° 230° 6 kt METAR EHVK 260025Z AUTO 23006KT 6000 BR NCD 03/03 Q1025 WHT RMK CB INFO NOT AVBL
00:55
M
3 °C 6 km - 230° 230° 7 kt METAR EHVK 252355Z AUTO 23007KT 6000 BR NCD 03/03 Q1025 WHT
00:25
M
4 °C 6 km - 230° 230° 7 kt METAR EHVK 252325Z AUTO 23007KT 6000 BR NCD 04/04 Q1025 WHT

25 november 2022

Tijd Code Weer Temp. Zicht Plafond Wind METAR/SPECI
23:55
M
3 °C 5 km - 230° 230° 6 kt METAR EHVK 252255Z AUTO 23006KT 5000 BR NCD 03/03 Q1024 WHT
23:44
M
3 °C 5 km - 230° 230° 6 kt METAR EHVK 252244Z AUTO 23006KT 5000 BR NCD 03/03 Q1024 WHT
23:25
I
4 °C 4,6 km - 230° 230° 6 kt METAR EHVK 252225Z AUTO 23006KT 4600 BR NCD 04/04 Q1024 GRN
23:12
I
4 °C 4,4 km - 240° 240° 7 kt METAR EHVK 252212Z AUTO 24007KT 4400 BR NCD 04/04 Q1024 GRN
22:56
I
4 °C 4,5 km - 230° 230° 7 kt METAR EHVK 252156Z AUTO 23007KT 4500 BR NCD 04/04 Q1024 GRN
22:55
I
4 °C 2,7 km - 230° 230° 7 kt METAR EHVK 252155Z AUTO 23007KT 2700 BR NCD 04/04 Q1024 YLO
22:46
I
4 °C 2 km - 230° 230° 6 kt SPECI EHVK 252146Z AUTO 23006KT 2000 BR NCD 04/04 Q1024 YLO
22:38
L
4 °C 1,2 km - 230° 230° 6 kt METAR EHVK 252138Z AUTO 23006KT 1200 BR NCD 04/04 Q1024 AMB
22:34
I
4 °C 2,8 km - 230° 230° 6 kt METAR EHVK 252134Z AUTO 23006KT 2800 BR NCD 04/04 Q1024 YLO
22:29
I
5 °C 4 km - 230° 230° 6 kt METAR EHVK 252129Z AUTO 23006KT 4000 BR NCD 05/05 Q1023 GRN
22:25
I
5 °C 3,1 km - 230° 230° 6 kt METAR EHVK 252125Z AUTO 23006KT 3100 BR NCD 05/04 Q1023 YLO
22:16
I
4 °C 4,4 km - 230° 230° 6 kt METAR EHVK 252116Z AUTO 23006KT 4400 BR NCD 04/04 Q1023 GRN
22:15
I
4 °C 3 km - 230° 230° 6 kt METAR EHVK 252115Z AUTO 23006KT 3000 BR NCD 04/04 Q1023 YLO
21:59
I
4 °C 4,7 km - 220° 220° 6 kt METAR EHVK 252059Z AUTO 22006KT 4700 BR NCD 04/04 Q1023 GRN
21:55
M
4 °C 5 km - 220° 220° 5 kt METAR EHVK 252055Z AUTO 22005KT 5000 BR NCD 04/04 Q1023 WHT
21:25
M
5 °C 6 km - 230° 230° 5 kt METAR EHVK 252025Z AUTO 23005KT 6000 BR NCD 05/04 Q1023 WHT
20:55
M
5 °C 7 km - 220° 220° 6 kt METAR EHVK 251955Z AUTO 22006KT 7000 BR NCD 05/05 Q1022 WHT
20:25
V
6 °C 10 km+ - 230° 230° 6 kt METAR EHVK 251925Z AUTO 23006KT 9999 NCD 06/05 Q1022 BLU
19:55
V
6 °C 10 km+ - 230° 230° 6 kt METAR EHVK 251855Z AUTO 23006KT 9999 NCD 06/05 Q1021 BLU
19:25
V
7 °C 10 km+ - 240° 240° 6 kt METAR EHVK 251825Z AUTO 24006KT 9999 FEW021 SCT027 07/06 Q1021 BLU
18:55
V
7 °C 10 km+ - 240° 240° 7 kt METAR EHVK 251755Z AUTO 24007KT 9999 NCD 07/06 Q1020 BLU
18:25
V
7 °C 10 km+ - 240° 240° 6 kt METAR EHVK 251725Z AUTO 24006KT 9999 NCD 07/06 Q1020 BLU
17:55
V
9 °C 10 km+ - 240° 240° 6 kt METAR EHVK 251655Z AUTO 24006KT 9999 NCD 09/07 Q1019 BLU
17:33
V
8 °C 10 km+ - 240° 240° 6 kt METAR EHVK 251633Z AUTO 24006KT 9999 FEW019 SCT024 08/07 Q1019 WHT
17:25
V
8 °C 10 km+ - 240° 240° 6 kt METAR EHVK 251625Z AUTO 24006KT 9999 NCD 08/06 Q1019 BLU
17:09
V
8 °C 10 km+ - 240° 240° 7 kt METAR EHVK 251609Z AUTO 24007KT 9999 FEW021 SCT027 08/06 Q1018 BLU
17:01
V
9 °C 10 km+ - 240° 240° 7 kt METAR EHVK 251601Z AUTO 24007KT 9999 SCT024 SCT030 09/07 Q1018 WHT
16:55
V
8 °C 10 km+ - 240° 240° 6 kt METAR EHVK 251555Z AUTO 24006KT 9999 NCD 08/06 Q1018 BLU
16:25
V
11 °C 10 km+ 5.700 ft 250° 250° 6 kt METAR EHVK 251525Z AUTO 25006KT 9999 FEW050 BKN057 BKN062 11/08 Q1018 BLU
16:14
V
11 °C 10 km+ 4.800 ft 250° 250° 5 kt METAR EHVK 251514Z AUTO 25005KT 9999 FEW036 BKN048 BKN057 11/08 Q1018 BLU
15:58
V
11 °C 10 km+ 3.100 ft 240° 240° 6 kt METAR EHVK 251458Z AUTO 24006KT 9999 FEW020 SCT026 BKN031 11/08 Q1017 BLU NOSIG
15:55
M
11 °C 10 km+ 2.400 ft 240° 240° 7 kt METAR EHVK 251455Z AUTO 24007KT 210V270 9999 FEW020 BKN024 BKN030 11/08 Q1017 WHT NOSIG
15:42
V
11 °C 10 km+ 3.100 ft 240° 240° 8 kt METAR EHVK 251442Z AUTO 24008KT 9999 -RADZ FEW019 SCT027 BKN031 11/08 Q1017 BLU NOSIG
15:25
V
11 °C 10 km+ 3.600 ft 240° 240° 8 kt METAR EHVK 251425Z AUTO 24008KT 9999 FEW020 SCT025 BKN036 11/08 Q1017 BLU NOSIG
14:55
M
12 °C 10 km+ 2.000 ft 240° 240° 7 kt METAR EHVK 251355Z AUTO 24007KT 9999 BKN020 BKN024 OVC034 12/08 Q1016 WHT NOSIG
14:25
M
12 °C 10 km+ 2.100 ft 240° 240° 10 kt METAR EHVK 251325Z AUTO 24010KT 210V270 9999 BKN021 12/07 Q1016 WHT NOSIG
14:12
M
12 °C 10 km+ 2.100 ft 240° 240° 9 kt METAR EHVK 251312Z AUTO 24009KT 9999 BKN021 BKN053 12/07 Q1016 WHT NOSIG
14:08
M
12 °C 10 km+ 2.500 ft 240° 240° 9 kt SPECI EHVK 251308Z AUTO 24009KT 210V270 9999 SCT021 BKN025 BKN053 12/08 Q1016 WHT NOSIG
13:57
V
12 °C 10 km+ - 240° 240° 9 kt METAR EHVK 251257Z AUTO 24009KT 220V290 9999 SCT022 SCT037 12/07 Q1016 WHT NOSIG
13:55
V
12 °C 10 km+ - 250° 250° 8 kt METAR EHVK 251255Z AUTO 25008KT 220V290 9999 FEW024 12/07 Q1016 BLU NOSIG
13:25
V
12 °C 10 km+ - 250° 250° 9 kt METAR EHVK 251225Z AUTO 25009KT 220V280 9999 NCD 12/07 Q1015 BLU NOSIG
12:55
V
12 °C 10 km+ - 230° 230° 10 kt METAR EHVK 251155Z AUTO 23010KT 200V260 9999 FEW025 12/07 Q1015 BLU NOSIG
12:25
V
11 °C 10 km+ - 230° 230° 10 kt METAR EHVK 251125Z AUTO 23010KT 200V260 9999 NCD 11/07 Q1015 BLU NOSIG
11:55
V
11 °C 10 km+ - 220° 220° 10 kt METAR EHVK 251055Z AUTO 22010KT 9999 NCD 11/08 Q1014 BLU NOSIG
11:25
V
10 °C 10 km+ - 220° 220° 10 kt METAR EHVK 251025Z AUTO 22010KT 190V250 9999 NCD 10/07 Q1014 BLU NOSIG
10:55
V
10 °C 10 km+ - 230° 230° 11 kt METAR EHVK 250955Z AUTO 23011KT 190V250 9999 NCD 10/07 Q1014 BLU NOSIG

Wij en derden volgen je internetgedrag op onze website met cookies. Als je doorgaat, gaan we ervan uit dat je akkoord gaat met onze cookiebeleid.